This is the latest recevied weather packets stored in our database for station/object KD8PH. If no packets are shown the sender has not sent any weather packets the latest 10 day(s).
| Time | Temp. | Humidity | Pressure | Rain* | Wind** | Luminosity | Snow |
|---|---|---|---|---|---|---|---|
| 1777497943 | 26.11° C | 71% | 1008.6 hPa | 0.51 mm | - | - | - |
| 1777497338 | 26.11° C | 70% | 1008.9 hPa | 0.51 mm | - | - | - |
| 1777496736 | 26.11° C | 70% | 1009.1 hPa | 0.51 mm | - | - | - |
| 1777496143 | 26.67° C | 68% | 1009.1 hPa | 0.51 mm | - | - | - |
| 1777495535 | 27.22° C | 67% | 1009 hPa | 0.51 mm | - | - | - |
| 1777494939 | 27.22° C | 67% | 1009 hPa | 0.51 mm | - | - | - |
| 1777494336 | 26.67° C | 69% | 1009.1 hPa | 0.51 mm | - | - | - |
| 1777493737 | 26.67° C | 70% | 1009.1 hPa | 0.51 mm | - | - | - |
| 1777493138 | 26.67° C | 71% | 1009.3 hPa | 0.76 mm | - | - | - |
| 1777492543 | 26.11° C | 71% | 1009.5 hPa | 0.51 mm | - | - | - |
| 1777491936 | 26.11° C | 70% | 1009.8 hPa | 0.76 mm | - | - | - |
| 1777491341 | 26.11° C | 72% | 1010.1 hPa | 0.76 mm | - | - | - |
| 1777490745 | 25.56° C | 75% | 1010.2 hPa | 0.76 mm | - | - | - |
| 1777490140 | 25.56° C | 76% | 1010.5 hPa | 0.76 mm | - | - | - |
| 1777489538 | 25° C | 77% | 1010.6 hPa | 0.76 mm | - | - | - |
| 1777488945 | 25° C | 78% | 1010.8 hPa | 0.76 mm | - | - | - |
| 1777488339 | 24.44° C | 80% | 1010.9 hPa | 0.76 mm | - | - | - |
| 1777487739 | 24.44° C | 81% | 1010.9 hPa | 1.02 mm | - | - | - |
| 1777487139 | 23.89° C | 82% | 1010.8 hPa | 0.76 mm | - | - | - |
| 1777486541 | 23.89° C | 82% | 1010.8 hPa | 1.02 mm | - | - | - |
| 1777485936 | 24.44° C | 80% | 1011 hPa | 0.76 mm | - | - | - |
| 1777485344 | 23.89° C | 81% | 1011.1 hPa | 1.02 mm | - | - | - |
| 1777484746 | 23.89° C | 82% | 1011.2 hPa | 0.76 mm | - | - | - |
| 1777484138 | 23.33° C | 83% | 1011.4 hPa | 0.76 mm | - | - | - |
| 1777483537 | 23.33° C | 82% | 1011.4 hPa | 0.76 mm | - | - | - |
* Rain latest hour (hover to see other rain measurements)
** Current wind speed in m/s (hover to see current wind gust speed)